Paradise Park, Pennsylvania
Current Conditions -  °F | °C
As of 9:15 AM on Saturday 20 Dec 2014 (Local Time) from KCXY Reporting Station
Overcast Overcast  
Wind Chill: 25°   Ceiling: 2900
Heat Index: 31°   Visibility: 10mi
Dew Point: 20°   Wind: 6mph
Humidity: 64%   Direction: NA
Pressure: 30.31"   Gusts: NA
Location:  40.4189°N, 77.1972°W
Report Text: KCXY 201415Z VRB05KT 10SM OVC029 M01/M07 A3031 RMK AO2 T10061067
Loading
Personal Weather Stations






























Interactive Weather Map New forecast layout! Learn more

10-Day Weather Forecast

Advertisements
Track Severe Weather on mobile